createdAt,value
2023-02-04T00:00:08.318Z,1018.63
2023-02-04T00:03:16.230Z,1018.87
2023-02-04T00:06:23.787Z,1018.93
2023-02-04T00:09:31.198Z,1019.00
2023-02-04T00:12:39.539Z,1019.17
2023-02-04T00:15:47.424Z,1019.18
2023-02-04T00:18:55.151Z,1019.43
2023-02-04T00:22:03.522Z,1019.45
2023-02-04T00:25:11.648Z,1019.58
2023-02-04T00:28:19.478Z,1019.67
2023-02-04T00:31:27.605Z,1019.74
2023-02-04T00:34:36.134Z,1019.59
2023-02-04T00:37:43.962Z,1019.85
2023-02-04T00:40:51.877Z,1019.83
2023-02-04T00:44:00.222Z,1019.91
2023-02-04T00:47:08.014Z,1020.03
2023-02-04T00:50:15.884Z,1020.08
2023-02-04T00:53:24.291Z,1020.24
2023-02-04T00:56:32.106Z,1020.23
2023-02-04T00:59:40.433Z,1020.31
2023-02-04T01:02:49.110Z,1020.39
2023-02-04T01:05:56.636Z,1020.43
2023-02-04T01:09:05.142Z,1020.50
2023-02-04T01:12:12.994Z,1020.64
2023-02-04T01:15:20.678Z,1020.69
2023-02-04T01:18:28.957Z,1020.74
2023-02-04T01:21:36.945Z,1020.82
2023-02-04T01:24:45.101Z,1020.97
2023-02-04T01:27:53.322Z,1021.09
2023-02-04T01:31:01.475Z,1021.12
2023-02-04T01:34:09.369Z,1021.33
2023-02-04T01:37:17.108Z,1021.36
2023-02-04T01:40:25.550Z,1021.47
2023-02-04T01:43:33.455Z,1021.51
2023-02-04T01:46:41.200Z,1021.64
2023-02-04T01:49:49.598Z,1021.72
2023-02-04T01:52:57.537Z,1021.79
2023-02-04T01:56:05.623Z,1021.84
2023-02-04T01:59:13.850Z,1022.04
2023-02-04T02:02:21.345Z,1022.06
2023-02-04T02:05:29.580Z,1022.06
2023-02-04T02:08:38.056Z,1022.06
2023-02-04T02:11:45.721Z,1022.11
2023-02-04T02:14:53.899Z,1022.15
2023-02-04T02:18:01.848Z,1022.33
2023-02-04T02:21:09.831Z,1022.36
2023-02-04T02:24:18.157Z,1022.39
2023-02-04T02:27:25.772Z,1022.48
2023-02-04T02:30:34.324Z,1022.43
2023-02-04T02:33:42.643Z,1022.48
2023-02-04T02:36:50.122Z,1022.60
2023-02-04T02:39:58.410Z,1022.66
2023-02-04T02:43:06.328Z,1022.74
2023-02-04T02:46:14.308Z,1022.78
2023-02-04T02:49:22.678Z,1022.80
2023-02-04T02:52:30.431Z,1022.80
2023-02-04T02:55:38.280Z,1022.80
2023-02-04T02:58:46.667Z,1022.93
2023-02-04T03:01:54.470Z,1022.99
2023-02-04T03:05:02.033Z,1023.10
2023-02-04T03:08:10.113Z,1023.12
2023-02-04T03:11:18.550Z,1023.22
2023-02-04T03:14:26.480Z,1023.36
2023-02-04T03:17:34.181Z,1023.40
2023-02-04T03:20:42.403Z,1023.52
2023-02-04T03:23:50.360Z,1023.52
2023-02-04T03:26:58.415Z,1023.63
2023-02-04T03:30:06.646Z,1023.67
2023-02-04T03:33:14.199Z,1023.78
2023-02-04T03:36:22.404Z,1023.79
2023-02-04T03:39:30.575Z,1023.96
2023-02-04T03:42:38.076Z,1023.99
2023-02-04T03:45:46.375Z,1024.07
2023-02-04T03:48:54.114Z,1024.13
2023-02-04T03:52:02.362Z,1024.27
2023-02-04T03:55:10.360Z,1024.41
2023-02-04T03:58:18.371Z,1024.40
2023-02-04T04:01:26.747Z,1024.45
2023-02-04T04:04:34.750Z,1024.57
2023-02-04T04:07:42.603Z,1024.52
2023-02-04T04:10:51.005Z,1024.60
2023-02-04T04:13:58.922Z,1024.75
2023-02-04T04:17:06.967Z,1024.82
2023-02-04T04:20:15.075Z,1024.88
2023-02-04T04:23:22.606Z,1024.94
2023-02-04T04:26:31.031Z,1025.04
2023-02-04T04:29:39.256Z,1025.16
2023-02-04T04:32:46.793Z,1025.19
2023-02-04T04:35:55.076Z,1025.24
2023-02-04T04:39:03.316Z,1025.30
2023-02-04T04:42:10.915Z,1025.35
2023-02-04T04:45:19.187Z,1025.34
2023-02-04T04:48:27.164Z,1025.42
2023-02-04T04:51:34.783Z,1025.53
2023-02-04T04:54:43.393Z,1025.55
2023-02-04T04:57:51.106Z,1025.60
2023-02-04T05:00:59.622Z,1025.60
2023-02-04T05:04:07.629Z,1025.68
2023-02-04T05:07:15.244Z,1025.67
2023-02-04T05:10:23.577Z,1025.76
2023-02-04T05:13:31.308Z,1025.88
2023-02-04T05:16:39.477Z,1025.92
2023-02-04T05:19:47.647Z,1025.90
2023-02-04T05:22:55.520Z,1025.92
2023-02-04T05:26:03.651Z,1025.93
2023-02-04T05:29:12.078Z,1025.95
2023-02-04T05:32:19.828Z,1025.88
2023-02-04T05:35:27.688Z,1025.83
2023-02-04T05:38:35.449Z,1025.81
2023-02-04T05:41:43.700Z,1025.86
2023-02-04T05:44:51.621Z,1025.97
2023-02-04T05:47:59.158Z,1026.08
2023-02-04T05:51:07.373Z,1026.09
2023-02-04T05:54:14.928Z,1026.18
2023-02-04T05:57:23.298Z,1026.31
2023-02-04T06:00:32.030Z,1026.26
2023-02-04T06:03:39.910Z,1026.36
2023-02-04T06:06:48.272Z,1026.46
2023-02-04T06:09:56.141Z,1026.65
2023-02-04T06:13:03.954Z,1026.71
2023-02-04T06:16:13.153Z,1026.72
2023-02-04T06:19:21.930Z,1026.83
2023-02-04T06:22:30.049Z,1026.83
2023-02-04T06:25:37.727Z,1026.93
2023-02-04T06:28:46.073Z,1026.94
2023-02-04T06:31:56.816Z,1027.01
2023-02-04T06:35:05.161Z,1026.97
2023-02-04T06:38:14.772Z,1027.09
2023-02-04T06:41:22.508Z,1027.06
2023-02-04T06:44:31.744Z,1027.07
2023-02-04T06:47:40.384Z,1027.10
2023-02-04T06:50:48.103Z,1027.14
2023-02-04T06:53:56.660Z,1027.08
2023-02-04T06:57:04.869Z,1027.25
2023-02-04T07:00:12.694Z,1027.29
2023-02-04T07:03:20.986Z,1027.34
2023-02-04T07:06:29.256Z,1027.43
2023-02-04T07:09:37.324Z,1027.45
2023-02-04T07:12:45.969Z,1027.49
2023-02-04T07:15:54.299Z,1027.61
2023-02-04T07:19:02.192Z,1027.59
2023-02-04T07:22:10.179Z,1027.58
2023-02-04T07:25:19.010Z,1027.59
2023-02-04T07:28:27.397Z,1027.75
2023-02-04T07:31:35.019Z,1027.71
2023-02-04T07:34:43.541Z,1027.75
2023-02-04T07:37:51.684Z,1027.86
2023-02-04T07:40:59.274Z,1027.91
2023-02-04T07:44:07.596Z,1027.96
2023-02-04T07:47:15.617Z,1028.07
2023-02-04T07:50:23.602Z,1028.09
2023-02-04T07:53:31.854Z,1028.12
2023-02-04T07:56:39.388Z,1028.14
2023-02-04T07:59:47.619Z,1028.27
2023-02-04T08:02:56.090Z,1028.30
2023-02-04T08:06:03.499Z,1028.28
2023-02-04T08:09:11.756Z,1028.39
2023-02-04T08:12:19.631Z,1028.35
2023-02-04T08:15:28.118Z,1028.49
2023-02-04T08:18:36.057Z,1028.55
2023-02-04T08:21:44.006Z,1028.62
2023-02-04T08:24:52.415Z,1028.55
2023-02-04T08:28:00.240Z,1028.51
2023-02-04T08:31:08.196Z,1028.52
2023-02-04T08:34:16.135Z,1028.55
2023-02-04T08:37:24.525Z,1028.58
2023-02-04T08:40:32.723Z,1028.61
2023-02-04T08:43:40.873Z,1028.63
2023-02-04T08:46:49.130Z,1028.65
2023-02-04T08:49:57.806Z,1028.78
2023-02-04T08:53:06.033Z,1028.79
2023-02-04T08:56:14.070Z,1028.81
2023-02-04T08:59:22.097Z,1028.82
2023-02-04T09:02:29.969Z,1028.90
2023-02-04T09:05:38.166Z,1028.96
2023-02-04T09:08:46.668Z,1028.88
2023-02-04T09:11:54.396Z,1028.87
2023-02-04T09:15:02.268Z,1028.91
2023-02-04T09:18:12.081Z,1028.90
2023-02-04T09:21:20.365Z,1028.91
2023-02-04T09:24:28.675Z,1028.97
2023-02-04T09:27:37.280Z,1028.99
2023-02-04T09:30:45.035Z,1029.11
2023-02-04T09:33:53.159Z,1029.13
2023-02-04T09:37:01.673Z,1029.14
2023-02-04T09:40:09.208Z,1029.19
2023-02-04T09:43:17.613Z,1029.15
2023-02-04T09:46:26.021Z,1029.11
2023-02-04T09:49:33.651Z,1029.18
2023-02-04T09:52:42.207Z,1029.31
2023-02-04T09:55:50.196Z,1029.34
2023-02-04T09:58:58.028Z,1029.38
2023-02-04T10:02:06.815Z,1029.38
2023-02-04T10:05:14.866Z,1029.37
2023-02-04T10:08:22.448Z,1029.41
2023-02-04T10:11:30.563Z,1029.41
2023-02-04T10:14:38.753Z,1029.48
2023-02-04T10:17:46.795Z,1029.36
2023-02-04T10:20:54.664Z,1029.35
2023-02-04T10:24:03.037Z,1029.43
2023-02-04T10:27:11.144Z,1029.40
2023-02-04T10:30:19.160Z,1029.38
2023-02-04T10:33:27.712Z,1029.33
2023-02-04T10:36:35.851Z,1029.42
2023-02-04T10:39:43.851Z,1029.51
2023-02-04T10:42:52.486Z,1029.54
2023-02-04T10:46:00.482Z,1029.56
2023-02-04T10:49:08.528Z,1029.51
2023-02-04T10:52:17.133Z,1029.52
2023-02-04T10:55:24.883Z,1029.61
2023-02-04T10:58:33.139Z,1029.65
2023-02-04T11:01:41.206Z,1029.65
2023-02-04T11:04:48.738Z,1029.61
2023-02-04T11:07:57.213Z,1029.62
2023-02-04T11:11:05.395Z,1029.59
2023-02-04T11:14:13.475Z,1029.65
2023-02-04T11:17:21.641Z,1029.61
2023-02-04T11:20:30.081Z,1029.60
2023-02-04T11:23:38.416Z,1029.57
2023-02-04T11:26:47.097Z,1029.66
2023-02-04T11:29:54.844Z,1029.64
2023-02-04T11:33:03.306Z,1029.74
2023-02-04T11:36:11.539Z,1029.70
2023-02-04T11:39:20.020Z,1029.74
2023-02-04T11:42:28.236Z,1029.78
2023-02-04T11:45:36.011Z,1029.89
2023-02-04T11:48:44.129Z,1029.82
2023-02-04T11:51:52.113Z,1029.83
2023-02-04T11:55:00.471Z,1029.93
2023-02-04T11:58:08.668Z,1029.98
2023-02-04T12:01:16.635Z,1030.01
2023-02-04T12:04:24.905Z,1029.94
2023-02-04T12:07:32.534Z,1029.91
2023-02-04T12:10:40.688Z,1029.93
2023-02-04T12:13:49.232Z,1029.93
2023-02-04T12:16:57.136Z,1029.92
2023-02-04T12:20:05.561Z,1029.99
2023-02-04T12:23:13.990Z,1029.98
2023-02-04T12:26:21.724Z,1030.00
2023-02-04T12:29:30.441Z,1030.00
2023-02-04T12:32:38.566Z,1030.06
2023-02-04T12:35:46.458Z,1030.00
2023-02-04T12:38:54.998Z,1030.06
2023-02-04T12:42:02.777Z,1030.09
2023-02-04T12:45:10.848Z,1030.13
2023-02-04T12:48:18.556Z,1030.13
2023-02-04T12:51:26.546Z,1030.19
2023-02-04T12:54:35.034Z,1030.17
2023-02-04T12:57:43.041Z,1030.19
2023-02-04T13:00:50.765Z,1030.17
2023-02-04T13:03:59.171Z,1030.18
2023-02-04T13:07:07.472Z,1030.21
2023-02-04T13:10:15.633Z,1030.19
2023-02-04T13:13:23.541Z,1030.16
2023-02-04T13:16:31.781Z,1030.22
2023-02-04T13:19:40.016Z,1030.24
2023-02-04T13:22:48.399Z,1030.25
2023-02-04T13:25:56.830Z,1030.26
2023-02-04T13:29:05.110Z,1030.27
2023-02-04T13:32:12.695Z,1030.24
2023-02-04T13:35:20.513Z,1030.28
2023-02-04T13:38:28.808Z,1030.29
2023-02-04T13:41:37.229Z,1030.31
2023-02-04T13:44:45.516Z,1030.29
2023-02-04T13:47:53.463Z,1030.39
2023-02-04T13:51:01.392Z,1030.43
2023-02-04T13:54:09.394Z,1030.32
2023-02-04T13:57:17.230Z,1030.30
2023-02-04T14:00:25.964Z,1030.27
2023-02-04T14:03:34.062Z,1030.24
2023-02-04T14:06:42.090Z,1030.27
2023-02-04T14:09:50.485Z,1030.21
2023-02-04T14:12:58.730Z,1030.35
2023-02-04T14:16:07.025Z,1030.34
2023-02-04T14:19:15.060Z,1030.30
2023-02-04T14:22:23.403Z,1030.35
2023-02-04T14:25:31.397Z,1030.34
2023-02-04T14:28:39.831Z,1030.34
2023-02-04T14:31:47.624Z,1030.34
2023-02-04T14:34:56.071Z,1030.36
2023-02-04T14:38:04.560Z,1030.39
2023-02-04T14:41:12.357Z,1030.33
2023-02-04T14:44:20.814Z,1030.35
2023-02-04T14:47:29.148Z,1030.38
2023-02-04T14:50:36.940Z,1030.41
2023-02-04T14:53:48.305Z,1030.47
2023-02-04T14:56:46.586Z,1030.43
2023-02-04T14:59:54.212Z,1030.56
2023-02-04T15:03:02.714Z,1030.65
2023-02-04T15:06:10.699Z,1030.55
2023-02-04T15:09:18.876Z,1030.59
2023-02-04T15:12:27.466Z,1030.57
2023-02-04T15:15:35.421Z,1030.50
2023-02-04T15:18:43.543Z,1030.53
2023-02-04T15:21:51.604Z,1030.56
2023-02-04T15:24:59.251Z,1030.56
2023-02-04T15:28:07.033Z,1030.59
2023-02-04T15:31:15.498Z,1030.68
2023-02-04T15:34:23.967Z,1030.63
2023-02-04T15:37:32.065Z,1030.62
2023-02-04T15:40:40.421Z,1030.56
2023-02-04T15:43:49.136Z,1030.59
2023-02-04T15:46:57.110Z,1030.57
2023-02-04T15:50:05.370Z,1030.63
2023-02-04T15:53:12.993Z,1030.55
2023-02-04T15:56:21.624Z,1030.62
2023-02-04T15:59:30.056Z,1030.66
2023-02-04T16:02:38.171Z,1030.65
2023-02-04T16:05:46.118Z,1030.64
2023-02-04T16:08:54.241Z,1030.66
2023-02-04T16:12:04.448Z,1030.73
2023-02-04T16:15:14.385Z,1030.70
2023-02-04T16:18:22.448Z,1030.72
2023-02-04T16:21:30.546Z,1030.78
2023-02-04T16:24:38.275Z,1030.78
2023-02-04T16:27:46.577Z,1030.76
2023-02-04T16:30:55.039Z,1030.78
2023-02-04T16:34:02.550Z,1030.78
2023-02-04T16:37:10.600Z,1030.72
2023-02-04T16:40:18.637Z,1030.75
2023-02-04T16:43:26.524Z,1030.79
2023-02-04T16:46:35.518Z,1030.85
2023-02-04T16:49:43.083Z,1030.83
2023-02-04T16:52:51.053Z,1030.78
2023-02-04T16:55:59.384Z,1030.92
2023-02-04T16:59:07.253Z,1030.87
2023-02-04T17:02:15.267Z,1030.88
2023-02-04T17:05:23.737Z,1030.87
2023-02-04T17:08:31.860Z,1030.91
2023-02-04T17:11:39.991Z,1030.95
2023-02-04T17:14:48.225Z,1031.01
2023-02-04T17:17:56.732Z,1031.04
2023-02-04T17:21:05.643Z,1031.10
2023-02-04T17:24:14.919Z,1031.12
2023-02-04T17:27:24.130Z,1031.25
2023-02-04T17:30:32.494Z,1031.25
2023-02-04T17:33:40.644Z,1031.36
2023-02-04T17:36:49.918Z,1031.32
2023-02-04T17:39:58.045Z,1031.27
2023-02-04T17:43:06.153Z,1031.28
2023-02-04T17:46:13.994Z,1031.29
2023-02-04T17:49:21.546Z,1031.33
2023-02-04T17:52:30.809Z,1031.32
2023-02-04T17:55:39.816Z,1031.32
2023-02-04T17:58:47.778Z,1031.38
2023-02-04T18:01:56.208Z,1031.37
2023-02-04T18:05:04.752Z,1031.38
2023-02-04T18:08:12.531Z,1031.34
2023-02-04T18:11:20.995Z,1031.34
2023-02-04T18:14:30.257Z,1031.29
2023-02-04T18:17:37.925Z,1031.35
2023-02-04T18:20:46.877Z,1031.35
2023-02-04T18:23:55.118Z,1031.40
2023-02-04T18:27:03.099Z,1031.33
2023-02-04T18:30:11.713Z,1031.41
2023-02-04T18:33:19.434Z,1031.38
2023-02-04T18:36:28.848Z,1031.35
2023-02-04T18:39:37.370Z,1031.32
2023-02-04T18:42:45.163Z,1031.35
2023-02-04T18:45:53.423Z,1031.33
2023-02-04T18:49:02.018Z,1031.34
2023-02-04T18:52:09.711Z,1031.36
2023-02-04T18:55:18.390Z,1031.32
2023-02-04T18:58:26.500Z,1031.39
2023-02-04T19:01:34.719Z,1031.50
2023-02-04T19:04:42.851Z,1031.45
2023-02-04T19:07:50.871Z,1031.42
2023-02-04T19:10:59.076Z,1031.47
2023-02-04T19:14:07.417Z,1031.53
2023-02-04T19:17:15.979Z,1031.51
2023-02-04T19:20:23.604Z,1031.57
2023-02-04T19:23:32.160Z,1031.63
2023-02-04T19:26:41.073Z,1031.66
2023-02-04T19:29:49.407Z,1031.67
2023-02-04T19:32:57.589Z,1031.69
2023-02-04T19:36:06.572Z,1031.70
2023-02-04T19:39:15.414Z,1031.68
2023-02-04T19:42:23.321Z,1031.74
2023-02-04T19:45:32.196Z,1031.76
2023-02-04T19:48:40.440Z,1031.75
2023-02-04T19:51:48.273Z,1031.77
2023-02-04T19:54:56.844Z,1031.70
2023-02-04T19:58:04.946Z,1031.74
2023-02-04T20:01:12.817Z,1031.79
2023-02-04T20:04:20.953Z,1031.75
2023-02-04T20:07:29.084Z,1031.70
2023-02-04T20:10:37.398Z,1031.70
2023-02-04T20:13:45.598Z,1031.72
2023-02-04T20:16:54.195Z,1031.72
2023-02-04T20:20:02.620Z,1031.69
2023-02-04T20:23:11.004Z,1031.72
2023-02-04T20:26:19.352Z,1031.70
2023-02-04T20:29:27.242Z,1031.75
2023-02-04T20:32:35.868Z,1031.77
2023-02-04T20:35:44.437Z,1031.87
2023-02-04T20:38:52.244Z,1031.83
2023-02-04T20:42:00.823Z,1031.89
2023-02-04T20:45:09.176Z,1031.88
2023-02-04T20:48:16.994Z,1031.89
2023-02-04T20:51:25.168Z,1031.84
2023-02-04T20:54:33.963Z,1031.95
2023-02-04T20:57:41.893Z,1031.83
2023-02-04T21:00:50.220Z,1031.84
2023-02-04T21:03:58.535Z,1031.82
2023-02-04T21:07:06.774Z,1031.83
2023-02-04T21:10:15.047Z,1031.75
2023-02-04T21:13:22.962Z,1031.71
2023-02-04T21:16:30.936Z,1031.68
2023-02-04T21:19:39.421Z,1031.66
2023-02-04T21:22:47.733Z,1031.55
2023-02-04T21:25:56.150Z,1031.56
2023-02-04T21:29:04.214Z,1031.50
2023-02-04T21:32:12.239Z,1031.47
2023-02-04T21:35:22.533Z,1031.49
2023-02-04T21:38:31.060Z,1031.50
2023-02-04T21:41:39.011Z,1031.54
2023-02-04T21:44:47.156Z,1031.54
2023-02-04T21:47:55.401Z,1031.56
2023-02-04T21:51:04.076Z,1031.50
2023-02-04T21:54:12.164Z,1031.53
2023-02-04T21:57:20.008Z,1031.56
2023-02-04T22:00:28.409Z,1031.57
2023-02-04T22:03:36.446Z,1031.53
2023-02-04T22:06:44.283Z,1031.50
2023-02-04T22:09:52.693Z,1031.59
2023-02-04T22:13:00.513Z,1031.55
2023-02-04T22:16:09.024Z,1031.49
2023-02-04T22:19:16.987Z,1031.52
2023-02-04T22:22:25.141Z,1031.49
2023-02-04T22:25:33.535Z,1031.58
2023-02-04T22:28:42.174Z,1031.47
2023-02-04T22:31:50.505Z,1031.55
2023-02-04T22:34:58.550Z,1031.42
2023-02-04T22:38:06.601Z,1031.47
2023-02-04T22:41:15.320Z,1031.47
2023-02-04T22:44:23.227Z,1031.45
2023-02-04T22:47:31.194Z,1031.38
2023-02-04T22:50:39.252Z,1031.37
2023-02-04T22:53:47.324Z,1031.38
2023-02-04T22:56:55.164Z,1031.44
2023-02-04T23:00:03.984Z,1031.48
2023-02-04T23:03:12.212Z,1031.51
2023-02-04T23:06:20.170Z,1031.51
2023-02-04T23:09:28.554Z,1031.42
2023-02-04T23:12:36.245Z,1031.45
2023-02-04T23:15:44.922Z,1031.39
2023-02-04T23:18:52.892Z,1031.42
2023-02-04T23:22:00.679Z,1031.49
2023-02-04T23:25:09.508Z,1031.61
2023-02-04T23:28:17.783Z,1031.69
2023-02-04T23:31:25.560Z,1031.60
2023-02-04T23:34:33.739Z,1031.54
2023-02-04T23:37:41.804Z,1031.46
2023-02-04T23:40:49.464Z,1031.45
2023-02-04T23:43:58.001Z,1031.41
2023-02-04T23:47:05.756Z,1031.52
2023-02-04T23:50:14.387Z,1031.58
2023-02-04T23:53:23.031Z,1031.53
2023-02-04T23:56:31.142Z,1031.59
2023-02-04T23:59:39.294Z,1031.50
